createdAt,value
2019-05-01T00:00:58.640Z,7.44
2019-05-01T00:03:36.720Z,7.41
2019-05-01T00:06:05.986Z,7.29
2019-05-01T00:08:32.884Z,7.38
2019-05-01T00:10:59.889Z,7.40
2019-05-01T00:13:26.780Z,7.43
2019-05-01T00:15:54.288Z,7.45
2019-05-01T00:18:21.768Z,7.38
2019-05-01T00:20:48.817Z,7.48
2019-05-01T00:23:15.909Z,7.35
2019-05-01T00:25:42.637Z,7.42
2019-05-01T00:28:09.783Z,7.51
2019-05-01T00:30:36.816Z,7.31
2019-05-01T00:33:03.779Z,7.16
2019-05-01T00:35:31.093Z,6.96
2019-05-01T00:37:58.086Z,7.03
2019-05-01T00:40:25.200Z,7.17
2019-05-01T00:42:52.269Z,7.21
2019-05-01T00:45:19.534Z,7.15
2019-05-01T00:47:46.668Z,7.23
2019-05-01T00:50:13.545Z,7.25
2019-05-01T00:52:40.926Z,7.26
2019-05-01T00:55:26.669Z,7.27
2019-05-01T00:57:55.697Z,7.09
2019-05-01T01:00:42.565Z,6.95
2019-05-01T01:02:59.835Z,6.99
2019-05-01T01:05:27.376Z,7.01
2019-05-01T01:07:54.506Z,7.00
2019-05-01T01:10:21.876Z,7.07
2019-05-01T01:12:49.006Z,7.16
2019-05-01T01:15:16.727Z,7.15
2019-05-01T01:17:43.955Z,7.02
2019-05-01T01:20:13.051Z,6.88
2019-05-01T01:22:40.618Z,6.82
2019-05-01T01:25:08.320Z,6.82
2019-05-01T01:27:35.683Z,6.94
2019-05-01T01:30:07.071Z,7.02
2019-05-01T01:32:34.100Z,6.97
2019-05-01T01:35:01.290Z,6.99
2019-05-01T01:37:28.166Z,6.95
2019-05-01T01:39:55.610Z,6.90
2019-05-01T01:42:23.375Z,6.86
2019-05-01T01:45:02.847Z,6.82
2019-05-01T01:47:30.060Z,6.85
2019-05-01T01:49:57.638Z,6.85
2019-05-01T01:52:26.278Z,6.75
2019-05-01T01:54:54.323Z,6.57
2019-05-01T01:57:22.223Z,6.55
2019-05-01T01:59:50.492Z,6.46
2019-05-01T02:02:22.527Z,6.49
2019-05-01T02:04:55.004Z,6.56
2019-05-01T02:07:21.987Z,6.57
2019-05-01T02:09:49.752Z,6.61
2019-05-01T02:12:17.715Z,6.70
2019-05-01T02:14:45.247Z,6.68
2019-05-01T02:17:12.499Z,6.74
2019-05-01T02:19:39.602Z,6.69
2019-05-01T02:22:06.551Z,6.64
2019-05-01T02:24:33.870Z,6.65
2019-05-01T02:27:18.210Z,6.64
2019-05-01T02:29:50.067Z,6.61
2019-05-01T02:32:18.911Z,6.55
2019-05-01T02:34:46.379Z,6.54
2019-05-01T02:37:14.547Z,6.47
2019-05-01T02:39:42.450Z,6.41
2019-05-01T02:42:13.508Z,6.41
2019-05-01T02:44:50.204Z,6.41
2019-05-01T02:47:22.617Z,6.30
2019-05-01T02:50:06.160Z,6.35
2019-05-01T02:52:36.841Z,6.20
2019-05-01T02:55:09.608Z,6.27
2019-05-01T02:57:39.494Z,6.23
2019-05-01T03:00:07.878Z,6.09
2019-05-01T03:02:39.800Z,6.09
2019-05-01T03:05:07.387Z,6.00
2019-05-01T03:07:37.940Z,6.12
2019-05-01T03:10:09.142Z,6.20
2019-05-01T03:12:40.520Z,6.26
2019-05-01T03:15:11.350Z,6.33
2019-05-01T03:17:51.240Z,6.24
2019-05-01T03:20:30.555Z,6.13
2019-05-01T03:23:16.108Z,5.91
2019-05-01T03:25:43.635Z,5.86
2019-05-01T03:28:11.711Z,5.94
2019-05-01T03:30:38.673Z,5.94
2019-05-01T03:33:08.682Z,5.91
2019-05-01T03:35:36.057Z,5.86
2019-05-01T03:38:03.215Z,5.93
2019-05-01T03:40:31.193Z,5.79
2019-05-01T03:42:58.145Z,5.90
2019-05-01T03:45:26.130Z,5.91
2019-05-01T03:47:54.381Z,5.99
2019-05-01T03:50:21.567Z,5.99
2019-05-01T03:52:49.362Z,6.05
2019-05-01T03:55:16.544Z,6.00
2019-05-01T03:57:43.523Z,5.94
2019-05-01T04:00:12.822Z,5.83
2019-05-01T04:02:59.023Z,5.81
2019-05-01T04:05:26.235Z,5.82
2019-05-01T04:07:53.432Z,5.91
2019-05-01T04:10:20.499Z,5.90
2019-05-01T04:12:47.593Z,5.92
2019-05-01T04:15:14.783Z,6.00
2019-05-01T04:17:43.887Z,5.91
2019-05-01T04:20:11.016Z,5.87
2019-05-01T04:22:38.198Z,5.83
2019-05-01T04:25:06.673Z,5.84
2019-05-01T04:27:35.813Z,5.84
2019-05-01T04:30:06.787Z,5.92
2019-05-01T04:32:50.759Z,5.83
2019-05-01T04:35:23.489Z,5.74
2019-05-01T04:37:52.288Z,5.73
2019-05-01T04:40:19.538Z,5.59
2019-05-01T04:42:46.999Z,5.60
2019-05-01T04:45:14.559Z,5.62
2019-05-01T04:47:42.025Z,5.68
2019-05-01T04:50:09.621Z,5.81
2019-05-01T04:52:38.310Z,5.75
2019-05-01T04:55:05.455Z,5.74
2019-05-01T04:57:33.079Z,5.65
2019-05-01T05:00:00.441Z,5.71
2019-05-01T05:02:35.512Z,5.68
2019-05-01T05:05:05.638Z,5.73
2019-05-01T05:07:33.087Z,5.70
2019-05-01T05:10:00.920Z,5.59
2019-05-01T05:12:37.309Z,5.67
2019-05-01T05:15:17.798Z,5.76
2019-05-01T05:17:45.268Z,5.84
2019-05-01T05:20:12.617Z,5.85
2019-05-01T05:22:39.701Z,5.95
2019-05-01T05:25:07.203Z,5.95
2019-05-01T05:27:35.951Z,5.95
2019-05-01T05:30:04.079Z,6.00
2019-05-01T05:32:35.331Z,6.16
2019-05-01T05:35:05.448Z,6.19
2019-05-01T05:37:38.703Z,6.15
2019-05-01T05:40:06.082Z,6.31
2019-05-01T05:42:33.269Z,6.28
2019-05-01T05:45:00.778Z,6.28
2019-05-01T05:47:28.152Z,6.26
2019-05-01T05:49:55.756Z,6.18
2019-05-01T05:52:26.541Z,6.17
2019-05-01T05:55:16.506Z,6.25
2019-05-01T05:57:56.025Z,6.28
2019-05-01T06:00:35.824Z,6.34
2019-05-01T06:03:30.975Z,6.49
2019-05-01T06:06:02.210Z,6.60
2019-05-01T06:08:35.632Z,6.69
2019-05-01T06:11:22.055Z,6.77
2019-05-01T06:13:57.152Z,6.88
2019-05-01T06:16:47.028Z,6.99
2019-05-01T06:19:16.198Z,7.06
2019-05-01T06:21:46.733Z,7.11
2019-05-01T06:24:20.637Z,7.25
2019-05-01T06:26:48.664Z,7.43
2019-05-01T06:29:16.127Z,7.60
2019-05-01T06:31:43.417Z,7.69
2019-05-01T06:34:11.131Z,7.81
2019-05-01T06:36:38.545Z,7.93
2019-05-01T06:39:11.224Z,8.03
2019-05-01T06:41:42.958Z,8.15
2019-05-01T06:44:13.133Z,8.29
2019-05-01T06:46:42.573Z,8.37
2019-05-01T06:49:17.802Z,8.44
2019-05-01T06:51:53.599Z,8.54
2019-05-01T06:54:27.342Z,8.69
2019-05-01T06:56:57.507Z,8.83
2019-05-01T06:59:30.974Z,8.96
2019-05-01T07:01:58.484Z,9.09
2019-05-01T07:04:27.557Z,9.22
2019-05-01T07:06:54.562Z,9.34
2019-05-01T07:09:28.094Z,9.44
2019-05-01T07:11:54.350Z,9.56
2019-05-01T07:14:21.811Z,9.64
2019-05-01T07:16:48.806Z,9.78
2019-05-01T07:19:17.904Z,10.05
2019-05-01T07:21:44.968Z,10.31
2019-05-01T07:24:12.532Z,10.50
2019-05-01T07:26:39.508Z,10.67
2019-05-01T07:29:11.760Z,10.88
2019-05-01T07:31:39.122Z,11.03
2019-05-01T07:34:16.445Z,11.19
2019-05-01T07:36:36.141Z,11.38
2019-05-01T07:39:09.797Z,11.61
2019-05-01T07:41:37.670Z,11.80
2019-05-01T07:44:19.585Z,11.98
2019-05-01T07:46:48.950Z,12.16
2019-05-01T07:49:19.584Z,12.34
2019-05-01T07:51:50.924Z,12.50
2019-05-01T07:54:19.688Z,12.71
2019-05-01T07:56:47.958Z,12.91
2019-05-01T07:59:15.554Z,13.07
2019-05-01T08:01:49.807Z,13.23
2019-05-01T08:04:18.462Z,13.40
2019-05-01T08:06:44.760Z,13.57
2019-05-01T08:09:15.206Z,13.72
2019-05-01T08:11:44.012Z,13.91
2019-05-01T08:14:11.978Z,14.10
2019-05-01T08:16:42.459Z,14.31
2019-05-01T08:19:09.479Z,14.56
2019-05-01T08:21:36.245Z,14.75
2019-05-01T08:24:03.408Z,14.84
2019-05-01T08:26:30.751Z,14.91
2019-05-01T08:29:06.853Z,15.12
2019-05-01T08:31:36.783Z,15.30
2019-05-01T08:34:08.340Z,15.48
2019-05-01T08:36:35.336Z,15.63
2019-05-01T08:39:09.085Z,15.81
2019-05-01T08:41:34.329Z,16.04
2019-05-01T08:44:01.795Z,16.32
2019-05-01T08:46:51.005Z,16.46
2019-05-01T08:49:20.921Z,16.58
2019-05-01T08:51:48.190Z,16.79
2019-05-01T08:54:15.232Z,16.91
2019-05-01T08:56:43.714Z,16.91
2019-05-01T08:59:11.698Z,16.98
2019-05-01T09:01:38.621Z,16.98
2019-05-01T09:04:12.715Z,17.16
2019-05-01T09:06:39.030Z,17.33
2019-05-01T09:09:08.318Z,17.59
2019-05-01T09:11:37.415Z,17.67
2019-05-01T09:14:04.588Z,17.76
2019-05-01T09:16:31.378Z,17.84
2019-05-01T09:18:58.352Z,17.95
2019-05-01T09:21:25.709Z,18.18
2019-05-01T09:23:53.261Z,18.44
2019-05-01T09:26:26.089Z,18.54
2019-05-01T09:28:57.520Z,18.58
2019-05-01T09:31:26.451Z,18.51
2019-05-01T09:33:53.330Z,18.69
2019-05-01T09:36:20.191Z,18.83
2019-05-01T09:38:50.417Z,18.87
2019-05-01T09:41:20.521Z,18.95
2019-05-01T09:43:47.436Z,19.20
2019-05-01T09:46:14.431Z,19.22
2019-05-01T09:48:41.755Z,19.33
2019-05-01T09:51:22.810Z,19.44
2019-05-01T09:53:51.590Z,19.49
2019-05-01T09:56:23.353Z,19.52
2019-05-01T09:58:50.315Z,19.44
2019-05-01T10:01:17.247Z,19.39
2019-05-01T10:03:44.958Z,19.41
2019-05-01T10:06:17.297Z,19.42
2019-05-01T10:08:42.780Z,19.64
2019-05-01T10:11:09.541Z,19.96
2019-05-01T10:13:37.110Z,20.26
2019-05-01T10:16:04.303Z,20.33
2019-05-01T10:18:31.184Z,20.54
2019-05-01T10:20:57.998Z,20.59
2019-05-01T10:23:24.999Z,20.87
2019-05-01T10:25:54.034Z,20.92
2019-05-01T10:28:23.963Z,21.06
2019-05-01T10:30:55.436Z,21.26
2019-05-01T10:33:24.411Z,21.64
2019-05-01T10:36:06.472Z,21.95
2019-05-01T10:38:33.342Z,22.15
2019-05-01T10:41:04.194Z,22.37
2019-05-01T10:43:28.817Z,22.47
2019-05-01T10:45:55.796Z,22.50
2019-05-01T10:48:22.568Z,22.61
2019-05-01T10:50:49.387Z,22.77
2019-05-01T10:53:16.394Z,22.73
2019-05-01T10:55:43.751Z,22.49
2019-05-01T10:58:12.879Z,22.77
2019-05-01T11:00:41.462Z,22.99
2019-05-01T11:03:11.127Z,23.15
2019-05-01T11:05:38.363Z,23.30
2019-05-01T11:08:05.518Z,23.50
2019-05-01T11:10:32.371Z,23.74
2019-05-01T11:12:59.314Z,23.68
2019-05-01T11:15:26.197Z,23.72
2019-05-01T11:17:52.931Z,23.68
2019-05-01T11:20:20.116Z,23.98
2019-05-01T11:22:47.029Z,24.39
2019-05-01T11:25:16.424Z,24.73
2019-05-01T11:27:43.353Z,24.97
2019-05-01T11:30:10.739Z,25.08
2019-05-01T11:32:56.387Z,25.44
2019-05-01T11:35:41.806Z,25.74
2019-05-01T11:38:26.398Z,25.99
2019-05-01T11:40:55.207Z,26.39
2019-05-01T11:43:22.615Z,26.68
2019-05-01T11:45:49.477Z,26.59
2019-05-01T11:48:16.502Z,26.57
2019-05-01T11:50:43.491Z,26.77
2019-05-01T11:53:10.337Z,26.90
2019-05-01T11:55:37.805Z,27.39
2019-05-01T11:58:05.035Z,27.95
2019-05-01T12:00:32.063Z,27.88
2019-05-01T12:02:59.024Z,27.86
2019-05-01T12:05:25.774Z,27.84
2019-05-01T12:07:52.680Z,27.77
2019-05-01T12:10:19.744Z,27.85
2019-05-01T12:12:46.816Z,27.94
2019-05-01T12:15:15.092Z,27.61
2019-05-01T12:17:44.405Z,28.03
2019-05-01T12:20:13.243Z,28.32
2019-05-01T12:22:40.521Z,27.78
2019-05-01T12:25:07.580Z,27.97
2019-05-01T12:27:34.458Z,28.51
2019-05-01T12:30:03.351Z,28.61
2019-05-01T12:32:30.205Z,28.48
2019-05-01T12:34:57.225Z,28.60
2019-05-01T12:37:29.181Z,27.98
2019-05-01T12:39:56.269Z,27.75
2019-05-01T12:42:24.966Z,28.15
2019-05-01T12:44:51.937Z,28.60
2019-05-01T12:47:38.201Z,28.44
2019-05-01T12:50:09.389Z,28.27
2019-05-01T12:52:39.021Z,28.53
2019-05-01T12:55:06.321Z,28.79
2019-05-01T12:57:33.136Z,28.81
2019-05-01T13:00:08.573Z,28.72
2019-05-01T13:02:30.882Z,28.62
2019-05-01T13:04:57.944Z,28.39
2019-05-01T13:07:24.912Z,28.80
2019-05-01T13:09:52.230Z,28.99
2019-05-01T13:12:19.324Z,28.83
2019-05-01T13:14:46.140Z,28.83
2019-05-01T13:17:13.295Z,28.86
2019-05-01T13:19:40.159Z,28.83
2019-05-01T13:22:07.300Z,29.24
2019-05-01T13:24:36.105Z,28.98
2019-05-01T13:27:14.804Z,29.02
2019-05-01T13:29:43.473Z,29.02
2019-05-01T13:32:16.618Z,29.41
2019-05-01T13:34:43.491Z,29.25
2019-05-01T13:37:10.625Z,29.21
2019-05-01T13:39:37.741Z,29.22
2019-05-01T13:42:05.675Z,28.84
2019-05-01T13:44:32.926Z,28.98
2019-05-01T13:47:01.952Z,28.72
2019-05-01T13:49:29.270Z,28.31
2019-05-01T13:51:56.336Z,28.15
2019-05-01T13:54:23.456Z,28.29
2019-05-01T13:56:50.971Z,28.64
2019-05-01T13:59:18.144Z,28.59
2019-05-01T14:01:47.759Z,28.35
2019-05-01T14:04:15.396Z,28.34
2019-05-01T14:06:42.715Z,28.00
2019-05-01T14:09:12.185Z,27.86
2019-05-01T14:11:39.560Z,27.80
2019-05-01T14:14:06.826Z,27.78
2019-05-01T14:16:33.865Z,27.50
2019-05-01T14:19:01.114Z,27.27
2019-05-01T14:21:32.435Z,27.27
2019-05-01T14:24:07.187Z,27.24
2019-05-01T14:26:34.558Z,27.28
2019-05-01T14:29:01.564Z,27.03
2019-05-01T14:31:28.355Z,26.94
2019-05-01T14:33:56.417Z,26.44
2019-05-01T14:36:25.842Z,26.21
2019-05-01T14:38:53.179Z,26.55
2019-05-01T14:41:20.186Z,26.71
2019-05-01T14:43:48.015Z,26.92
2019-05-01T14:46:14.783Z,26.78
2019-05-01T14:48:41.546Z,26.56
2019-05-01T14:51:08.440Z,26.51
2019-05-01T14:53:35.423Z,26.45
2019-05-01T14:56:02.783Z,26.26
2019-05-01T14:58:29.686Z,26.03
2019-05-01T15:00:58.398Z,25.63
2019-05-01T15:03:25.932Z,25.65
2019-05-01T15:05:53.162Z,25.81
2019-05-01T15:08:20.344Z,25.69
2019-05-01T15:10:55.583Z,25.64
2019-05-01T15:13:26.582Z,25.45
2019-05-01T15:15:56.579Z,24.99
2019-05-01T15:18:29.757Z,25.08
2019-05-01T15:20:58.596Z,24.91
2019-05-01T15:23:25.515Z,24.61
2019-05-01T15:25:52.597Z,24.52
2019-05-01T15:28:19.529Z,24.17
2019-05-01T15:30:46.365Z,23.55
2019-05-01T15:33:15.961Z,23.09
2019-05-01T15:35:43.176Z,22.77
2019-05-01T15:38:09.973Z,22.43
2019-05-01T15:40:44.866Z,22.26
2019-05-01T15:43:28.799Z,22.15
2019-05-01T15:45:55.803Z,21.92
2019-05-01T15:48:22.572Z,21.86
2019-05-01T15:50:49.711Z,21.90
2019-05-01T15:53:16.575Z,21.78
2019-05-01T15:55:43.400Z,21.60
2019-05-01T15:58:10.257Z,21.42
2019-05-01T16:00:37.090Z,21.35
2019-05-01T16:03:04.151Z,21.23
2019-05-01T16:05:30.945Z,21.15
2019-05-01T16:08:09.209Z,21.04
2019-05-01T16:10:28.482Z,20.97
2019-05-01T16:12:57.534Z,20.98
2019-05-01T16:15:32.293Z,20.91
2019-05-01T16:17:59.284Z,20.91
2019-05-01T16:20:26.674Z,20.82
2019-05-01T16:22:53.979Z,20.79
2019-05-01T16:25:20.990Z,20.76
2019-05-01T16:27:48.523Z,20.73
2019-05-01T16:30:17.895Z,20.60
2019-05-01T16:32:44.789Z,20.51
2019-05-01T16:35:11.794Z,20.46
2019-05-01T16:37:38.747Z,20.50
2019-05-01T16:40:07.957Z,20.42
2019-05-01T16:42:35.254Z,20.30
2019-05-01T16:45:04.552Z,20.23
2019-05-01T16:47:31.574Z,20.22
2019-05-01T16:49:58.420Z,20.17
2019-05-01T16:52:27.313Z,20.13
2019-05-01T16:54:59.293Z,20.10
2019-05-01T16:57:23.211Z,20.10
2019-05-01T16:59:50.556Z,20.08
2019-05-01T17:02:36.550Z,20.06
2019-05-01T17:05:22.638Z,20.01
2019-05-01T17:08:09.528Z,20.01
2019-05-01T17:10:47.106Z,19.95
2019-05-01T17:13:16.858Z,19.89
2019-05-01T17:15:46.356Z,19.81
2019-05-01T17:18:13.615Z,19.73
2019-05-01T17:20:40.411Z,19.68
2019-05-01T17:23:07.526Z,19.66
2019-05-01T17:25:34.650Z,19.61
2019-05-01T17:28:02.803Z,19.59
2019-05-01T17:30:47.152Z,19.49
2019-05-01T17:33:19.598Z,19.47
2019-05-01T17:35:43.346Z,19.44
2019-05-01T17:38:10.216Z,19.41
2019-05-01T17:40:37.547Z,19.40
2019-05-01T17:43:08.261Z,19.32
2019-05-01T17:45:34.775Z,19.25
2019-05-01T17:48:02.811Z,19.19
2019-05-01T17:50:31.153Z,19.10
2019-05-01T17:52:58.054Z,19.09
2019-05-01T17:55:25.607Z,19.04
2019-05-01T17:57:52.599Z,18.92
2019-05-01T18:00:22.023Z,18.92
2019-05-01T18:03:01.084Z,18.83
2019-05-01T18:05:43.333Z,18.89
2019-05-01T18:08:10.798Z,18.84
2019-05-01T18:10:38.547Z,18.78
2019-05-01T18:13:06.926Z,18.72
2019-05-01T18:15:34.497Z,18.67
2019-05-01T18:18:01.324Z,18.60
2019-05-01T18:20:28.233Z,18.54
2019-05-01T18:23:08.383Z,18.49
2019-05-01T18:25:37.009Z,18.44
2019-05-01T18:28:25.038Z,18.37
2019-05-01T18:30:56.052Z,18.27
2019-05-01T18:33:21.971Z,18.08
2019-05-01T18:35:50.545Z,17.94
2019-05-01T18:38:22.406Z,17.76
2019-05-01T18:40:51.167Z,17.61
2019-05-01T18:43:18.198Z,17.46
2019-05-01T18:45:49.015Z,17.27
2019-05-01T18:48:17.177Z,17.28
2019-05-01T18:50:44.280Z,16.89
2019-05-01T18:53:12.536Z,16.71
2019-05-01T18:55:39.518Z,16.77
2019-05-01T18:58:06.582Z,16.45
2019-05-01T19:00:35.350Z,16.12
2019-05-01T19:03:04.143Z,15.77
2019-05-01T19:05:32.422Z,15.70
2019-05-01T19:07:59.448Z,15.63
2019-05-01T19:10:26.438Z,15.69
2019-05-01T19:12:53.450Z,15.73
2019-05-01T19:15:20.361Z,15.70
2019-05-01T19:17:47.616Z,15.68
2019-05-01T19:20:14.572Z,15.63
2019-05-01T19:22:41.357Z,15.38
2019-05-01T19:25:11.105Z,15.21
2019-05-01T19:27:37.282Z,15.09
2019-05-01T19:30:09.719Z,15.21
2019-05-01T19:32:35.289Z,15.16
2019-05-01T19:35:04.722Z,14.99
2019-05-01T19:37:35.058Z,14.87
2019-05-01T19:40:04.342Z,14.80
2019-05-01T19:42:31.260Z,14.70
2019-05-01T19:44:58.649Z,14.56
2019-05-01T19:47:25.743Z,14.63
2019-05-01T19:49:54.547Z,14.42
2019-05-01T19:52:21.509Z,14.34
2019-05-01T19:54:48.372Z,14.23
2019-05-01T19:57:15.287Z,14.25
2019-05-01T19:59:42.182Z,14.16
2019-05-01T20:02:11.418Z,14.12
2019-05-01T20:04:38.407Z,14.21
2019-05-01T20:07:05.413Z,14.17
2019-05-01T20:09:32.462Z,14.14
2019-05-01T20:11:59.446Z,13.91
2019-05-01T20:14:26.500Z,13.81
2019-05-01T20:16:53.413Z,13.81
2019-05-01T20:19:21.091Z,13.68
2019-05-01T20:21:48.736Z,13.62
2019-05-01T20:24:18.779Z,13.39
2019-05-01T20:26:44.293Z,13.08
2019-05-01T20:29:11.079Z,13.05
2019-05-01T20:31:38.243Z,13.10
2019-05-01T20:34:05.122Z,12.96
2019-05-01T20:36:33.962Z,12.85
2019-05-01T20:39:06.194Z,13.05
2019-05-01T20:41:33.294Z,13.07
2019-05-01T20:44:00.508Z,13.15
2019-05-01T20:46:28.085Z,13.40
2019-05-01T20:48:56.072Z,13.38
2019-05-01T20:51:24.673Z,13.35
2019-05-01T20:53:51.844Z,13.33
2019-05-01T20:56:26.604Z,13.32
2019-05-01T20:58:57.755Z,13.40
2019-05-01T21:01:24.334Z,13.32
2019-05-01T21:03:58.886Z,13.28
2019-05-01T21:06:30.373Z,13.08
2019-05-01T21:09:08.442Z,13.06
2019-05-01T21:11:35.576Z,13.06
2019-05-01T21:14:16.731Z,12.91
2019-05-01T21:16:32.944Z,12.98
2019-05-01T21:19:02.414Z,13.00
2019-05-01T21:21:29.341Z,12.96
2019-05-01T21:23:56.833Z,12.86
2019-05-01T21:26:23.870Z,12.77
2019-05-01T21:28:50.647Z,12.65
2019-05-01T21:31:17.419Z,12.73
2019-05-01T21:33:46.273Z,12.66
2019-05-01T21:36:13.514Z,12.54
2019-05-01T21:38:40.310Z,12.50
2019-05-01T21:41:07.167Z,12.43
2019-05-01T21:43:37.051Z,12.22
2019-05-01T21:46:03.965Z,12.27
2019-05-01T21:48:33.391Z,12.23
2019-05-01T21:51:05.890Z,11.96
2019-05-01T21:53:29.218Z,11.89
2019-05-01T21:55:55.994Z,11.99
2019-05-01T21:58:28.294Z,12.03
2019-05-01T22:00:55.196Z,12.06
2019-05-01T22:03:21.588Z,12.03
2019-05-01T22:05:50.017Z,12.09
2019-05-01T22:08:17.341Z,11.98
2019-05-01T22:10:51.835Z,11.99
2019-05-01T22:13:14.284Z,12.05
2019-05-01T22:15:47.249Z,11.85
2019-05-01T22:18:14.536Z,11.58
2019-05-01T22:20:43.472Z,11.69
2019-05-01T22:23:12.639Z,11.56
2019-05-01T22:25:41.633Z,11.73
2019-05-01T22:28:18.719Z,11.85
2019-05-01T22:30:47.589Z,11.91
2019-05-01T22:33:14.663Z,11.80
2019-05-01T22:35:46.210Z,11.69
2019-05-01T22:38:13.398Z,11.74
2019-05-01T22:40:40.251Z,11.82
2019-05-01T22:43:07.224Z,11.96
2019-05-01T22:45:36.616Z,11.99
2019-05-01T22:48:03.825Z,11.91
2019-05-01T22:50:30.690Z,11.90
2019-05-01T22:52:57.469Z,11.73
2019-05-01T22:55:25.369Z,11.72
2019-05-01T22:57:53.380Z,11.71
2019-05-01T23:00:37.248Z,11.47
2019-05-01T23:03:07.305Z,11.29
2019-05-01T23:05:34.499Z,11.41
2019-05-01T23:08:01.396Z,11.46
2019-05-01T23:10:28.761Z,11.48
2019-05-01T23:12:55.599Z,11.41
2019-05-01T23:15:24.646Z,11.31
2019-05-01T23:17:51.503Z,11.36
2019-05-01T23:20:19.231Z,11.32
2019-05-01T23:22:46.011Z,11.12
2019-05-01T23:25:13.825Z,11.09
2019-05-01T23:27:41.063Z,11.16
2019-05-01T23:30:10.523Z,11.23
2019-05-01T23:32:37.605Z,11.19
2019-05-01T23:35:05.877Z,11.20
2019-05-01T23:37:33.207Z,11.22
2019-05-01T23:40:00.324Z,10.95
2019-05-01T23:42:27.190Z,10.91
2019-05-01T23:44:54.130Z,10.70
2019-05-01T23:47:23.033Z,10.55
2019-05-01T23:49:52.557Z,10.67
2019-05-01T23:52:18.899Z,11.00
2019-05-01T23:54:46.081Z,10.90
2019-05-01T23:57:14.975Z,10.75
2019-05-01T23:59:42.133Z,10.46
